createdAt,value
2019-05-22T00:00:58.081Z,22.00
2019-05-22T00:03:35.644Z,23.30
2019-05-22T00:06:06.556Z,23.23
2019-05-22T00:08:36.687Z,23.50
2019-05-22T00:11:07.666Z,24.03
2019-05-22T00:13:38.617Z,23.23
2019-05-22T00:16:08.885Z,22.90
2019-05-22T00:18:40.042Z,23.67
2019-05-22T00:21:10.356Z,24.07
2019-05-22T00:23:40.576Z,22.83
2019-05-22T00:26:11.133Z,23.33
2019-05-22T00:28:41.545Z,24.60
2019-05-22T00:31:13.330Z,23.20
2019-05-22T00:33:43.819Z,22.97
2019-05-22T00:36:13.869Z,24.27
2019-05-22T00:38:43.649Z,24.30
2019-05-22T00:41:15.365Z,24.33
2019-05-22T00:43:45.121Z,26.07
2019-05-22T00:46:16.245Z,24.83
2019-05-22T00:48:47.909Z,27.07
2019-05-22T00:51:21.774Z,27.20
2019-05-22T00:54:09.268Z,25.90
2019-05-22T00:56:55.558Z,27.03
2019-05-22T00:59:36.013Z,28.40
2019-05-22T01:02:07.932Z,29.17
2019-05-22T01:04:42.170Z,28.40
2019-05-22T01:07:18.462Z,30.90
2019-05-22T01:09:48.509Z,26.97
2019-05-22T01:12:27.257Z,29.63
2019-05-22T01:14:58.849Z,30.63
2019-05-22T01:17:30.175Z,31.10
2019-05-22T01:20:01.795Z,28.73
2019-05-22T01:22:34.017Z,31.87
2019-05-22T01:25:04.973Z,31.80
2019-05-22T01:27:36.165Z,30.43
2019-05-22T01:30:08.484Z,31.00
2019-05-22T01:32:53.499Z,32.27
2019-05-22T01:35:30.143Z,34.27
2019-05-22T01:37:59.801Z,35.20
2019-05-22T01:40:43.078Z,32.93
2019-05-22T01:43:14.036Z,34.07
2019-05-22T01:45:44.973Z,34.33
2019-05-22T01:48:19.106Z,33.87
2019-05-22T01:50:50.121Z,34.57
2019-05-22T01:53:23.801Z,35.00
2019-05-22T01:55:59.252Z,36.33
2019-05-22T01:58:31.641Z,35.97
2019-05-22T02:01:03.119Z,36.40
2019-05-22T02:03:32.420Z,36.93
2019-05-22T02:06:01.800Z,34.73
2019-05-22T02:08:32.317Z,37.47
2019-05-22T02:11:01.986Z,35.97
2019-05-22T02:13:43.978Z,34.73
2019-05-22T02:16:14.756Z,35.37
2019-05-22T02:18:46.080Z,32.50
2019-05-22T02:21:16.651Z,35.37
2019-05-22T02:23:47.505Z,30.70
2019-05-22T02:26:18.073Z,29.87
2019-05-22T02:28:47.453Z,29.57
2019-05-22T02:31:18.431Z,27.00
2019-05-22T02:34:02.691Z,27.50
2019-05-22T02:36:32.965Z,26.87
2019-05-22T02:39:03.905Z,26.23
2019-05-22T02:41:47.227Z,27.07
2019-05-22T02:44:17.477Z,26.73
2019-05-22T02:46:48.812Z,26.33
2019-05-22T02:49:18.343Z,27.83
2019-05-22T02:51:48.001Z,26.70
2019-05-22T02:54:17.675Z,28.53
2019-05-22T02:56:47.506Z,24.17
2019-05-22T02:59:18.071Z,28.80
2019-05-22T03:01:48.820Z,29.17
2019-05-22T03:04:19.546Z,28.73
2019-05-22T03:06:51.202Z,29.53
2019-05-22T03:09:23.024Z,28.43
2019-05-22T03:11:54.938Z,30.77
2019-05-22T03:14:24.800Z,28.27
2019-05-22T03:17:00.429Z,27.93
2019-05-22T03:19:42.774Z,28.17
2019-05-22T03:22:31.459Z,28.27
2019-05-22T03:25:02.299Z,27.50
2019-05-22T03:27:44.229Z,26.30
2019-05-22T03:30:22.291Z,27.33
2019-05-22T03:32:53.516Z,27.73
2019-05-22T03:35:25.194Z,25.40
2019-05-22T03:37:57.051Z,26.13
2019-05-22T03:40:28.780Z,27.47
2019-05-22T03:42:59.752Z,26.40
2019-05-22T03:45:29.433Z,25.20
2019-05-22T03:47:59.487Z,24.50
2019-05-22T03:50:29.577Z,24.37
2019-05-22T03:53:02.066Z,24.53
2019-05-22T03:55:31.445Z,24.43
2019-05-22T03:58:00.856Z,23.93
2019-05-22T04:00:31.043Z,24.57
2019-05-22T04:03:00.663Z,22.70
2019-05-22T04:05:29.954Z,22.90
2019-05-22T04:08:00.151Z,23.20
2019-05-22T04:10:33.810Z,23.07
2019-05-22T04:13:04.553Z,22.70
2019-05-22T04:15:34.478Z,24.00
2019-05-22T04:18:15.286Z,23.07
2019-05-22T04:20:45.311Z,22.43
2019-05-22T04:23:15.125Z,22.03
2019-05-22T04:25:44.436Z,22.30
2019-05-22T04:28:14.274Z,18.07
2019-05-22T04:30:44.188Z,21.80
2019-05-22T04:33:13.778Z,21.00
2019-05-22T04:35:43.096Z,21.90
2019-05-22T04:38:12.572Z,22.03
2019-05-22T04:40:46.919Z,23.13
2019-05-22T04:43:20.224Z,26.50
2019-05-22T04:45:48.439Z,25.27
2019-05-22T04:48:20.453Z,23.43
2019-05-22T04:50:50.205Z,22.90
2019-05-22T04:53:19.908Z,24.03
2019-05-22T04:55:49.365Z,25.27
2019-05-22T04:58:20.943Z,24.97
2019-05-22T05:00:50.442Z,24.50
2019-05-22T05:03:20.858Z,24.10
2019-05-22T05:05:52.829Z,25.53
2019-05-22T05:08:23.025Z,25.53
2019-05-22T05:10:55.125Z,25.87
2019-05-22T05:13:24.618Z,25.17
2019-05-22T05:15:53.933Z,24.83
2019-05-22T05:18:23.300Z,24.97
2019-05-22T05:20:52.793Z,27.07
2019-05-22T05:23:22.277Z,25.20
2019-05-22T05:25:51.957Z,21.97
2019-05-22T05:28:23.071Z,24.17
2019-05-22T05:30:53.628Z,21.83
2019-05-22T05:33:25.254Z,23.00
2019-05-22T05:35:54.994Z,24.43
2019-05-22T05:38:36.316Z,23.50
2019-05-22T05:41:06.253Z,22.97
2019-05-22T05:43:35.667Z,23.70
2019-05-22T05:46:05.246Z,23.73
2019-05-22T05:48:36.040Z,22.43
2019-05-22T05:51:11.476Z,22.57
2019-05-22T05:54:03.129Z,22.53
2019-05-22T05:56:33.887Z,20.13
2019-05-22T05:59:05.731Z,22.00
2019-05-22T06:01:37.023Z,23.83
2019-05-22T06:04:06.530Z,23.43
2019-05-22T06:06:43.064Z,21.07
2019-05-22T06:09:20.055Z,19.23
2019-05-22T06:11:53.867Z,19.07
2019-05-22T06:14:30.178Z,20.73
2019-05-22T06:17:39.185Z,19.90
2019-05-22T06:20:11.750Z,19.27
2019-05-22T06:22:42.651Z,20.20
2019-05-22T06:25:14.404Z,18.33
2019-05-22T06:27:47.373Z,21.80
2019-05-22T06:30:21.700Z,20.93
2019-05-22T06:33:13.612Z,22.00
2019-05-22T06:35:44.552Z,21.13
2019-05-22T06:38:22.881Z,21.30
2019-05-22T06:40:52.866Z,22.17
2019-05-22T06:43:26.828Z,25.43
2019-05-22T06:45:56.509Z,25.97
2019-05-22T06:48:25.819Z,28.40
2019-05-22T06:50:55.207Z,32.20
2019-05-22T06:53:24.788Z,30.47
2019-05-22T06:55:54.127Z,33.20
2019-05-22T06:58:23.606Z,32.70
2019-05-22T07:00:53.093Z,33.87
2019-05-22T07:03:23.173Z,35.40
2019-05-22T07:05:53.260Z,35.37
2019-05-22T07:08:23.301Z,33.73
2019-05-22T07:10:53.331Z,35.60
2019-05-22T07:13:22.740Z,38.33
2019-05-22T07:15:53.896Z,36.70
2019-05-22T07:18:24.581Z,36.67
2019-05-22T07:20:54.787Z,35.00
2019-05-22T07:23:25.736Z,33.57
2019-05-22T07:25:55.228Z,35.43
2019-05-22T07:28:26.752Z,33.20
2019-05-22T07:30:56.810Z,34.77
2019-05-22T07:33:26.465Z,34.40
2019-05-22T07:36:09.501Z,34.13
2019-05-22T07:38:27.505Z,34.73
2019-05-22T07:40:56.988Z,31.23
2019-05-22T07:43:28.168Z,32.97
2019-05-22T07:45:57.805Z,32.30
2019-05-22T07:48:28.637Z,31.87
2019-05-22T07:50:58.898Z,31.30
2019-05-22T07:53:29.195Z,32.10
2019-05-22T07:56:00.710Z,28.13
2019-05-22T07:58:31.588Z,27.23
2019-05-22T08:01:02.417Z,27.20
2019-05-22T08:03:33.281Z,24.17
2019-05-22T08:06:03.251Z,26.13
2019-05-22T08:08:33.206Z,25.43
2019-05-22T08:11:03.027Z,26.43
2019-05-22T08:13:34.415Z,24.57
2019-05-22T08:16:03.949Z,22.77
2019-05-22T08:18:34.902Z,25.77
2019-05-22T08:21:06.637Z,25.93
2019-05-22T08:23:37.753Z,27.50
2019-05-22T08:26:09.493Z,27.93
2019-05-22T08:28:39.070Z,27.13
2019-05-22T08:31:10.313Z,25.87
2019-05-22T08:33:39.930Z,26.53
2019-05-22T08:36:09.681Z,27.17
2019-05-22T08:38:40.309Z,26.87
2019-05-22T08:41:09.975Z,27.03
2019-05-22T08:44:11.449Z,29.00
2019-05-22T08:46:12.936Z,27.77
2019-05-22T08:48:47.791Z,26.70
2019-05-22T08:51:14.478Z,26.47
2019-05-22T08:53:47.934Z,27.47
2019-05-22T08:56:15.005Z,26.83
2019-05-22T08:58:44.973Z,25.37
2019-05-22T09:01:15.150Z,26.30
2019-05-22T09:03:45.402Z,25.20
2019-05-22T09:06:14.744Z,26.37
2019-05-22T09:08:44.076Z,28.90
2019-05-22T09:11:13.403Z,25.93
2019-05-22T09:13:42.965Z,28.87
2019-05-22T09:16:12.429Z,30.33
2019-05-22T09:18:41.759Z,29.73
2019-05-22T09:21:12.050Z,26.77
2019-05-22T09:23:42.022Z,23.40
2019-05-22T09:26:12.828Z,19.87
2019-05-22T09:28:42.418Z,21.67
2019-05-22T09:31:11.741Z,23.63
2019-05-22T09:33:41.518Z,22.10
2019-05-22T09:36:11.258Z,20.83
2019-05-22T09:38:40.900Z,22.23
2019-05-22T09:41:10.249Z,21.87
2019-05-22T09:43:39.565Z,22.83
2019-05-22T09:46:10.050Z,22.13
2019-05-22T09:48:39.489Z,22.40
2019-05-22T09:51:08.915Z,23.20
2019-05-22T09:53:38.476Z,23.97
2019-05-22T09:56:08.244Z,24.07
2019-05-22T09:58:38.027Z,23.77
2019-05-22T10:01:11.488Z,23.90
2019-05-22T10:03:38.809Z,23.00
2019-05-22T10:06:08.468Z,24.37
2019-05-22T10:08:38.109Z,21.67
2019-05-22T10:11:07.614Z,23.43
2019-05-22T10:13:37.181Z,24.40
2019-05-22T10:16:06.716Z,22.40
2019-05-22T10:18:36.044Z,22.90
2019-05-22T10:21:06.807Z,21.43
2019-05-22T10:23:36.641Z,22.07
2019-05-22T10:26:06.565Z,24.17
2019-05-22T10:28:37.252Z,24.13
2019-05-22T10:31:08.963Z,24.10
2019-05-22T10:33:40.292Z,23.87
2019-05-22T10:36:09.669Z,23.57
2019-05-22T10:38:39.104Z,22.13
2019-05-22T10:41:09.264Z,24.13
2019-05-22T10:43:38.651Z,23.77
2019-05-22T10:46:08.618Z,23.97
2019-05-22T10:48:40.468Z,23.57
2019-05-22T10:51:09.035Z,23.30
2019-05-22T10:53:38.795Z,22.33
2019-05-22T10:56:08.762Z,24.00
2019-05-22T10:58:38.434Z,22.77
2019-05-22T11:01:08.519Z,24.80
2019-05-22T11:03:38.505Z,25.00
2019-05-22T11:06:08.537Z,24.40
2019-05-22T11:08:38.359Z,23.67
2019-05-22T11:11:08.927Z,24.27
2019-05-22T11:13:39.209Z,24.80
2019-05-22T11:16:09.321Z,24.07
2019-05-22T11:18:39.073Z,23.47
2019-05-22T11:21:08.664Z,24.93
2019-05-22T11:23:51.186Z,24.70
2019-05-22T11:26:09.122Z,26.03
2019-05-22T11:28:38.672Z,25.53
2019-05-22T11:31:08.431Z,25.63
2019-05-22T11:33:38.030Z,26.00
2019-05-22T11:36:07.348Z,24.90
2019-05-22T11:38:36.747Z,24.67
2019-05-22T11:41:06.898Z,25.50
2019-05-22T11:43:36.346Z,25.30
2019-05-22T11:46:06.106Z,26.57
2019-05-22T11:48:35.449Z,26.87
2019-05-22T11:51:05.360Z,26.00
2019-05-22T11:53:35.246Z,24.40
2019-05-22T11:56:04.630Z,24.47
2019-05-22T11:58:33.999Z,25.90
2019-05-22T12:01:03.737Z,26.93
2019-05-22T12:03:33.439Z,25.80
2019-05-22T12:06:03.188Z,24.00
2019-05-22T12:08:32.665Z,25.00
2019-05-22T12:11:03.400Z,22.50
2019-05-22T12:13:32.831Z,22.67
2019-05-22T12:16:04.271Z,25.77
2019-05-22T12:18:33.740Z,23.70
2019-05-22T12:21:03.527Z,23.97
2019-05-22T12:23:33.197Z,21.77
2019-05-22T12:26:03.820Z,23.03
2019-05-22T12:28:33.411Z,23.83
2019-05-22T12:31:03.927Z,22.23
2019-05-22T12:33:33.392Z,21.37
2019-05-22T12:36:03.482Z,22.47
2019-05-22T12:38:32.888Z,22.03
2019-05-22T12:41:03.849Z,22.60
2019-05-22T12:43:35.044Z,21.63
2019-05-22T12:46:04.492Z,22.40
2019-05-22T12:48:33.844Z,21.83
2019-05-22T12:51:03.179Z,21.83
2019-05-22T12:53:32.779Z,19.67
2019-05-22T12:56:03.727Z,20.97
2019-05-22T12:58:33.722Z,20.27
2019-05-22T13:01:03.590Z,21.63
2019-05-22T13:03:34.956Z,20.57
2019-05-22T13:06:05.286Z,19.50
2019-05-22T13:08:35.878Z,20.47
2019-05-22T13:11:06.637Z,20.33
2019-05-22T13:13:36.687Z,21.27
2019-05-22T13:16:06.628Z,21.30
2019-05-22T13:18:36.316Z,22.10
2019-05-22T13:21:06.324Z,20.60
2019-05-22T13:23:38.875Z,17.93
2019-05-22T13:26:08.792Z,20.23
2019-05-22T13:28:39.543Z,19.53
2019-05-22T13:31:09.835Z,18.63
2019-05-22T13:33:40.533Z,18.87
2019-05-22T13:36:11.299Z,17.57
2019-05-22T13:38:41.223Z,18.73
2019-05-22T13:41:11.070Z,18.97
2019-05-22T13:43:40.534Z,18.77
2019-05-22T13:46:09.852Z,18.77
2019-05-22T13:48:39.232Z,19.37
2019-05-22T13:51:09.426Z,19.27
2019-05-22T13:53:39.410Z,20.13
2019-05-22T13:56:09.456Z,17.23
2019-05-22T13:58:39.171Z,15.37
2019-05-22T14:01:08.738Z,17.13
2019-05-22T14:03:38.432Z,16.97
2019-05-22T14:06:07.739Z,17.20
2019-05-22T14:08:37.056Z,15.90
2019-05-22T14:11:07.008Z,16.23
2019-05-22T14:13:37.335Z,16.27
2019-05-22T14:16:06.834Z,18.37
2019-05-22T14:18:36.149Z,19.07
2019-05-22T14:21:05.482Z,18.67
2019-05-22T14:23:34.967Z,20.13
2019-05-22T14:26:04.353Z,17.87
2019-05-22T14:28:35.230Z,20.00
2019-05-22T14:31:04.621Z,19.87
2019-05-22T14:33:33.931Z,20.07
2019-05-22T14:36:04.996Z,18.90
2019-05-22T14:38:34.676Z,19.33
2019-05-22T14:41:04.832Z,20.40
2019-05-22T14:43:34.331Z,20.60
2019-05-22T14:46:03.798Z,20.67
2019-05-22T14:48:34.064Z,19.73
2019-05-22T14:51:03.439Z,21.53
2019-05-22T14:53:33.551Z,18.60
2019-05-22T14:56:03.620Z,19.97
2019-05-22T14:58:33.471Z,19.20
2019-05-22T15:01:02.878Z,19.73
2019-05-22T15:03:32.831Z,20.97
2019-05-22T15:06:02.607Z,19.97
2019-05-22T15:08:32.035Z,18.80
2019-05-22T15:11:01.603Z,19.40
2019-05-22T15:13:31.190Z,20.57
2019-05-22T15:16:01.189Z,21.20
2019-05-22T15:18:30.549Z,20.20
2019-05-22T15:21:02.514Z,19.43
2019-05-22T15:23:33.465Z,21.40
2019-05-22T15:26:03.452Z,21.23
2019-05-22T15:28:33.361Z,21.53
2019-05-22T15:31:03.011Z,21.63
2019-05-22T15:33:33.959Z,22.37
2019-05-22T15:36:06.788Z,22.70
2019-05-22T15:38:38.553Z,21.63
2019-05-22T15:41:08.700Z,24.23
2019-05-22T15:43:39.146Z,24.97
2019-05-22T15:46:10.332Z,23.17
2019-05-22T15:48:40.376Z,25.30
2019-05-22T15:51:10.724Z,23.70
2019-05-22T15:53:40.406Z,24.20
2019-05-22T15:56:09.889Z,26.23
2019-05-22T15:58:41.228Z,25.13
2019-05-22T16:01:10.960Z,25.73
2019-05-22T16:03:42.608Z,24.53
2019-05-22T16:06:13.697Z,25.83
2019-05-22T16:08:43.260Z,26.33
2019-05-22T16:11:14.781Z,26.17
2019-05-22T16:13:45.412Z,25.93
2019-05-22T16:16:16.610Z,24.53
2019-05-22T16:18:47.638Z,24.93
2019-05-22T16:21:18.000Z,25.03
2019-05-22T16:23:47.397Z,24.63
2019-05-22T16:26:17.971Z,25.20
2019-05-22T16:28:49.216Z,24.73
2019-05-22T16:31:19.439Z,25.97
2019-05-22T16:33:50.968Z,24.30
2019-05-22T16:36:21.054Z,26.13
2019-05-22T16:38:51.111Z,26.47
2019-05-22T16:41:21.460Z,23.10
2019-05-22T16:43:52.036Z,25.97
2019-05-22T16:46:21.822Z,27.00
2019-05-22T16:48:52.404Z,27.57
2019-05-22T16:51:22.360Z,25.70
2019-05-22T16:53:54.015Z,25.07
2019-05-22T16:56:23.880Z,26.47
2019-05-22T16:58:53.460Z,24.70
2019-05-22T17:01:24.175Z,25.80
2019-05-22T17:03:54.827Z,24.33
2019-05-22T17:06:24.398Z,26.17
2019-05-22T17:08:56.216Z,25.33
2019-05-22T17:11:27.844Z,24.83
2019-05-22T17:13:59.228Z,24.00
2019-05-22T17:16:29.510Z,24.47
2019-05-22T17:18:58.929Z,23.07
2019-05-22T17:21:28.697Z,25.20
2019-05-22T17:23:59.374Z,22.97
2019-05-22T17:26:29.252Z,22.03
2019-05-22T17:28:58.840Z,23.73
2019-05-22T17:31:29.058Z,20.23
2019-05-22T17:33:59.526Z,22.37
2019-05-22T17:36:29.013Z,21.73
2019-05-22T17:38:58.668Z,23.23
2019-05-22T17:41:30.422Z,24.23
2019-05-22T17:44:01.553Z,23.23
2019-05-22T17:46:31.387Z,22.53
2019-05-22T17:49:01.933Z,23.33
2019-05-22T17:51:32.079Z,22.83
2019-05-22T17:54:01.469Z,23.70
2019-05-22T17:56:31.025Z,23.20
2019-05-22T17:59:01.141Z,22.70
2019-05-22T18:01:31.212Z,23.23
2019-05-22T18:04:01.065Z,23.53
2019-05-22T18:06:30.402Z,23.30
2019-05-22T18:08:59.879Z,24.00
2019-05-22T18:11:32.004Z,24.73
2019-05-22T18:14:03.503Z,23.90
2019-05-22T18:16:33.189Z,23.80
2019-05-22T18:19:02.942Z,24.10
2019-05-22T18:21:32.351Z,23.50
2019-05-22T18:24:02.029Z,24.07
2019-05-22T18:26:31.363Z,25.07
2019-05-22T18:29:00.844Z,26.00
2019-05-22T18:31:30.354Z,23.23
2019-05-22T18:33:59.742Z,22.03
2019-05-22T18:36:29.080Z,23.20
2019-05-22T18:38:58.448Z,23.57
2019-05-22T18:41:27.855Z,23.90
2019-05-22T18:43:57.500Z,23.63
2019-05-22T18:46:27.151Z,23.07
2019-05-22T18:48:56.696Z,23.63
2019-05-22T18:51:26.563Z,22.70
2019-05-22T18:53:56.613Z,25.37
2019-05-22T18:56:25.946Z,23.37
2019-05-22T18:58:55.897Z,24.80
2019-05-22T19:01:25.535Z,24.87
2019-05-22T19:03:54.819Z,25.60
2019-05-22T19:06:30.305Z,25.13
2019-05-22T19:08:55.678Z,27.23
2019-05-22T19:11:25.174Z,26.10
2019-05-22T19:13:54.554Z,26.80
2019-05-22T19:16:24.436Z,26.83
2019-05-22T19:18:53.817Z,26.00
2019-05-22T19:21:23.151Z,25.83
2019-05-22T19:23:52.529Z,28.30
2019-05-22T19:26:22.338Z,26.40
2019-05-22T19:28:51.909Z,24.73
2019-05-22T19:31:21.322Z,27.03
2019-05-22T19:33:50.781Z,28.13
2019-05-22T19:36:20.127Z,27.43
2019-05-22T19:38:49.447Z,26.67
2019-05-22T19:41:19.348Z,28.17
2019-05-22T19:43:49.200Z,25.67
2019-05-22T19:46:18.921Z,28.27
2019-05-22T19:48:48.229Z,28.10
2019-05-22T19:51:19.491Z,27.07
2019-05-22T19:53:48.879Z,27.60
2019-05-22T19:56:23.440Z,27.80
2019-05-22T19:58:50.870Z,28.43
2019-05-22T20:01:21.102Z,28.73
2019-05-22T20:03:51.054Z,26.80
2019-05-22T20:06:22.893Z,28.47
2019-05-22T20:08:52.783Z,29.27
2019-05-22T20:11:22.481Z,29.90
2019-05-22T20:13:52.246Z,28.63
2019-05-22T20:16:21.593Z,28.57
2019-05-22T20:18:51.094Z,28.90
2019-05-22T20:21:20.852Z,28.47
2019-05-22T20:23:50.186Z,29.17
2019-05-22T20:26:20.323Z,27.83
2019-05-22T20:28:49.638Z,27.10
2019-05-22T20:31:19.017Z,26.77
2019-05-22T20:33:48.539Z,28.57
2019-05-22T20:36:18.535Z,26.30
2019-05-22T20:38:48.043Z,25.83
2019-05-22T20:41:17.843Z,25.73
2019-05-22T20:43:47.348Z,27.43
2019-05-22T20:46:18.714Z,27.40
2019-05-22T20:48:49.339Z,25.93
2019-05-22T20:51:20.543Z,25.37
2019-05-22T20:53:54.683Z,25.07
2019-05-22T20:56:23.973Z,23.53
2019-05-22T20:58:53.513Z,22.57
2019-05-22T21:01:23.001Z,23.23
2019-05-22T21:03:52.505Z,24.77
2019-05-22T21:06:23.694Z,24.33
2019-05-22T21:08:53.477Z,24.87
2019-05-22T21:11:25.818Z,24.43
2019-05-22T21:13:55.157Z,22.37
2019-05-22T21:16:26.276Z,22.33
2019-05-22T21:18:56.205Z,22.53
2019-05-22T21:21:25.989Z,22.13
2019-05-22T21:24:09.299Z,22.50
2019-05-22T21:26:26.980Z,21.03
2019-05-22T21:28:58.806Z,21.07
2019-05-22T21:31:29.092Z,20.67
2019-05-22T21:33:58.417Z,20.50
2019-05-22T21:36:29.470Z,20.47
2019-05-22T21:38:58.861Z,21.10
2019-05-22T21:41:28.648Z,19.30
2019-05-22T21:43:57.961Z,19.53
2019-05-22T21:46:27.277Z,18.23
2019-05-22T21:48:57.837Z,18.10
2019-05-22T21:51:27.218Z,18.17
2019-05-22T21:53:57.389Z,18.73
2019-05-22T21:56:26.689Z,17.43
2019-05-22T21:58:56.025Z,17.80
2019-05-22T22:01:27.442Z,17.77
2019-05-22T22:04:00.166Z,18.30
2019-05-22T22:06:33.136Z,17.60
2019-05-22T22:09:01.645Z,16.77
2019-05-22T22:11:33.216Z,17.10
2019-05-22T22:14:03.203Z,18.07
2019-05-22T22:16:32.760Z,16.13
2019-05-22T22:19:02.336Z,17.40
2019-05-22T22:21:31.819Z,17.60
2019-05-22T22:24:01.220Z,16.30
2019-05-22T22:26:30.610Z,18.13
2019-05-22T22:29:00.385Z,17.90
2019-05-22T22:31:31.407Z,16.87
2019-05-22T22:34:18.112Z,16.40
2019-05-22T22:36:47.569Z,16.50
2019-05-22T22:39:18.548Z,17.47
2019-05-22T22:41:47.883Z,17.43
2019-05-22T22:44:17.698Z,16.43
2019-05-22T22:46:57.843Z,17.47
2019-05-22T22:49:27.928Z,17.87
2019-05-22T22:51:57.661Z,16.30
2019-05-22T22:54:29.250Z,17.40
2019-05-22T22:56:59.166Z,18.20
2019-05-22T22:59:28.999Z,18.60
2019-05-22T23:02:01.134Z,17.70
2019-05-22T23:04:30.908Z,18.37
2019-05-22T23:07:02.270Z,18.97
2019-05-22T23:09:31.632Z,17.97
2019-05-22T23:12:01.121Z,17.43
2019-05-22T23:14:31.782Z,17.27
2019-05-22T23:17:02.238Z,17.80
2019-05-22T23:19:34.956Z,18.23
2019-05-22T23:22:04.965Z,16.63
2019-05-22T23:24:37.471Z,18.83
2019-05-22T23:27:09.563Z,18.20
2019-05-22T23:29:40.518Z,16.97
2019-05-22T23:32:11.537Z,19.10
2019-05-22T23:34:41.426Z,17.70
2019-05-22T23:37:13.226Z,17.60
2019-05-22T23:39:44.627Z,18.30
2019-05-22T23:42:16.118Z,17.63
2019-05-22T23:44:46.283Z,18.20
2019-05-22T23:47:15.674Z,17.87
2019-05-22T23:49:45.060Z,18.00
2019-05-22T23:52:15.545Z,17.20
2019-05-22T23:54:45.810Z,18.23
2019-05-22T23:57:15.560Z,19.20
2019-05-22T23:59:47.012Z,16.90
